Pavel Schick

Olheiro-Chefe - Jablonec
13 Jan 2028
Quinta-feira
Processo

Personalidade

Adaptabilidade (3) Ambição (1) Controvérsia (10) Lealdade (17) Pressão (20) Profissionalismo (14) Espírito Esportivo (2) Temperamento (11)

Perfil

Estilo de Treinamento Democrático
Licença Continental C
Determinação 4
Gestão de Pessoas 7
Motivação 10
Disciplina 8
Satisfação no Trabalho
100%
Fadiga
0%
Função Olheiro-Chefe
Salário 17.4K p/s
Contrato 14.03.2029

Desempenho

Comportamento Bom
Eficácia do Treinamento
43%
Desenvolvimento do Jogador
55%
Prevenção de Lesões
30%
Implementação Tática
25%

Eventos Recentes

Avaliou um jogador agora
Participou de uma reunião de recrutamento agora
Participou de uma reunião de recrutamento agora
Recomendou um alvo de transferência agora
Recomendou um alvo de transferência agora
Recomendou um alvo de transferência 7d atrás
Recomendou um alvo de transferência 7d atrás
Recomendou um alvo de transferência 7d atrás

Monitorando agora

174
Jogador Clube Status Habilidade Confiança Observado Última observação Último voto
Vasilije Novičić IMT Ativo 95 / 105 40% 1 10.01.2028 -
Daniel Banjaqui Benfica Ativo 121 / 138 40% 1 10.01.2028 -
Kieran Morgan Queens Park Rangers Ativo 129 / 138 40% 1 10.01.2028 -
Finn Jeltsch VfB Stuttgart Ativo 136 / 130 40% 1 02.01.2028 -
Martim Cunha Porto Ativo 95 / 119 40% 1 02.01.2028 -
Juan Giménez Celta Ativo 128 / 117 40% 1 02.01.2028 -
Aljoša Matko Viborg Negociando 117 / 117 66% 1 01.01.2028 -
Daniel Bunk Bohemians 1905 Negociando 103 / 91 69% 1 01.01.2028 -
Mohamed Bolivar Barranquilla Ativo 77 / 87 40% 1 21.11.2027 -
Rasmus Nehrman Gefle Ativo 86 / 71 40% 1 21.11.2027 -
Ricky Atletico Venezuela Ativo 108 / 98 40% 1 21.11.2027 -
Christos Mouzakitis Hull City Ativo 139 / 150 40% 1 18.11.2027 -
Mauro Carrizo Atlético Tucumán Ativo 108 / 92 40% 1 18.11.2027 -
Sam Curtis Cambridge United Ativo 112 / 120 40% 1 18.11.2027 -
Lee Bonis Chesterfield Ativo 102 / 119 40% 2 26.07.2027 -
Marezi Portsmouth Ativo 113 / 116 40% 2 26.07.2027 -
Noah Okafor Leeds United Ativo 156 / 132 40% 1 26.07.2027 -
Ronan Hale Gillingham Ativo 125 / 113 40% 2 12.07.2027 -
Dom Ballard Leyton Orient Ativo 132 / 113 40% 3 12.07.2027 -
Sam Nombe Milton Keynes Dons Ativo 116 / 99 40% 2 01.07.2027 -
Jaze Kabia Grimsby Town Ativo 101 / 80 40% 1 01.07.2027 -
Bradley Phiri Lillestrom Ativo 112 / 112 66% 1 01.06.2027 Aprovar
Razvan Mitrita San Diego Football Club Negociando 118 / 120 66% 1 01.06.2027 Aprovar
Juan Bezerra BK Hacken Negociando 117 / 121 66% 1 01.06.2027 Aprovar
Shota Shekiladze Akhmat Grozny Negociando 110 / 110 66% 1 01.06.2027 Aprovar
Pedro de la Vega FC Dallas Negociando 133 / 134 66% 1 01.06.2027 Aprovar
Martin Sekulić Ural Ativo 106 / 110 40% 3 30.05.2027 -
Niall Ennis Blackpool Ativo 116 / 125 40% 2 30.05.2027 -
Mohammed Yahaya Great Olympics Ativo 86 / 87 40% 1 30.05.2027 -
Mathias Jørgensen Blackburn Rovers Ativo 122 / 115 40% 3 28.05.2027 -
Lewis McCann Fleetwood Town Ativo 90 / 103 40% 2 28.05.2027 -
Harry Leonard Peterborough United Ativo 104 / 120 40% 1 28.05.2027 -
Shayne Lavery Cambridge United Ativo 108 / 98 40% 3 27.05.2027 -
Emanuele Schimmenti Potenza Ativo 105 / 100 40% 1 27.05.2027 -
Rui Costa Port Vale Ativo 117 / 96 40% 2 23.05.2027 -
Callum O'Hare Sheffield United Ativo 121 / 124 40% 2 23.05.2027 -
Christian Saydee Wigan Athletic Ativo 101 / 113 40% 1 23.05.2027 -
Bertrand Traoré Sunderland Ativo 124 / 117 40% 2 22.05.2027 -
Will Lankshear Middlesbrough Ativo 119 / 116 40% 1 22.05.2027 -
Patson Daka Leicester City Ativo 131 / 130 40% 3 20.05.2027 -
Shilow Tracey Crawley Town Ativo 84 / 81 40% 2 20.05.2027 -
Iwan Morgan Grimsby Town Ativo 118 / 103 40% 1 20.05.2027 -
Elijah Adebayo Luton Town Ativo 120 / 136 40% 4 18.05.2027 -
Silvio Merkaj Vicenza Ativo 122 / 108 40% 1 18.05.2027 -
Sam Bell Bristol City Ativo 122 / 116 40% 2 17.05.2027 -
Mees Rijks Bristol Rovers Ativo 108 / 119 40% 2 16.05.2027 -
Marcus Browne AFC Wimbledon Ativo 116 / 98 40% 3 16.05.2027 -
Joe Ironside Tranmere Rovers Ativo 94 / 86 40% 1 16.05.2027 -
Zian Flemming Ipswich Town Ativo 126 / 130 40% 3 15.05.2027 -
Kelly Saravanan Salford City Ativo 119 / 102 40% 1 15.05.2027 -
Aune Heggebø West Bromwich Albion Ativo 138 / 139 40% 6 11.05.2027 -
George Lloyd Shrewsbury Town Ativo 93 / 92 40% 1 10.05.2027 -
Adam Idah Swansea City Ativo 121 / 115 40% 1 10.05.2027 -
Bojan Radulović Huddersfield Town Ativo 106 / 123 40% 1 10.05.2027 -
Hany Mukhtar Spezia Ativo 145 / 118 40% 2 08.05.2027 -
Yousef Salech Cardiff City Ativo 134 / 124 40% 2 08.05.2027 -
Ilyas Ansah Hull City Ativo 136 / 117 40% 2 07.05.2027 -
Bernat Guiu Virtus Entella Ativo 123 / 104 40% 1 07.05.2027 -
Mandla Mahlangu Ajax Cape Town Ativo 115 / 107 40% 3 03.05.2027 -
Alassana Jatta Notts County Ativo 105 / 106 40% 3 02.05.2027 -
Josh Windass Wrexham Ativo 117 / 114 40% 1 02.05.2027 -
Lorent Tolaj Plymouth Argyle Ativo 115 / 125 40% 2 30.04.2027 -
Aaron Collins Milton Keynes Dons Ativo 112 / 112 40% 2 29.04.2027 -
Robert Mizo Ashanti Gold Ativo 105 / 100 40% 4 28.04.2027 -
Lewis Morgan SuperSport United Ativo 124 / 115 40% 4 28.04.2027 -
Luis Vázquez Birmingham Ativo 119 / 132 40% 4 26.04.2027 -
Will Evans Mansfield Town Ativo 103 / 99 40% 1 26.04.2027 -
Louis Appéré Cambridge United Ativo 108 / 100 40% 2 19.04.2027 -
Giacomo Zecca Torres Ativo 115 / 94 40% 1 17.04.2027 -
Tyrese Campbell Sheffield United Ativo 132 / 122 40% 2 15.04.2027 -
Jordan Ayew Leicester City Ativo 119 / 108 40% 2 15.04.2027 -
Peter Shalulile Mamelodi Sundowns Ativo 140 / 116 40% 1 14.04.2027 -
Lorenzo Di Stefano Torres Ativo 117 / 107 40% 1 13.04.2027 -
Simone Verdi Benevento Ativo 124 / 120 40% 1 11.04.2027 -
Kieffer Moore Wrexham Ativo 124 / 133 40% 1 11.04.2027 -
Rhian Brewster Oxford United Ativo 129 / 113 40% 1 10.04.2027 -
Giuseppe Di Serio Spezia Ativo 114 / 121 40% 1 09.04.2027 -
Mattia Bortolussi Padova Ativo 131 / 127 40% 1 07.04.2027 -
Leandro Romano Ismaily Ativo 100 / 101 40% 1 07.04.2027 -
Joe Gelhardt Hull City Ativo 129 / 150 40% 1 07.04.2027 -
Bismark Asante Ashanti Gold Ativo 93 / 94 40% 1 06.04.2027 -
Carlton Morris Derby County Ativo 113 / 131 40% 1 05.04.2027 -
Ivan Schranz Slavia Prague Ativo 132 / 134 40% 2 04.04.2027 -
Davis Keillor-Dunn Wrexham Ativo 128 / 134 40% 1 01.04.2027 -
Danyil Alefirenko Chornomorets Ativo 113 / 99 40% 2 28.03.2027 -
Malik Mothersille Stockport County Ativo 120 / 123 40% 2 27.03.2027 -
Kwame Opoku Asante Kotoko Ativo 102 / 89 40% 2 26.03.2027 -
Harry Cornick AFC Wimbledon Ativo 110 / 113 40% 1 26.03.2027 -
Josh Koroma Leyton Orient Ativo 98 / 97 40% 1 25.03.2027 -
Ross Stewart Southampton Ativo 116 / 126 40% 1 24.03.2027 -
Kenneth Ikugar MB Rouissat Ativo 91 / 87 40% 1 24.03.2027 -
Everton Bala Levski Ativo 130 / 114 40% 2 20.03.2027 -
Cameron Archer Southampton Ativo 116 / 139 40% 1 19.03.2027 -
Jordan Roberts Stevenage Ativo 115 / 118 40% 1 19.03.2027 -
Promise Omochere Bristol Rovers Ativo 102 / 109 40% 1 18.03.2027 -
Victor Adeboyejo Ismaily Ativo 115 / 99 40% 1 18.03.2027 -
Etiosa Ighodaro Kaizer Chiefs Ativo 105 / 113 40% 1 14.03.2027 -
Mohamed-Ali Cho Hull City Ativo 137 / 116 40% 1 03.03.2027 -
Welington Southampton Ativo 129 / 112 40% 2 19.01.2027 -
Koki Saito Queens Park Rangers Ativo 120 / 117 40% 1 19.01.2027 -
Ronald Swansea City Ativo 127 / 137 40% 1 19.01.2027 -
Giorgi Chakvetadze Watford Ativo 131 / 144 40% 1 31.12.2026 -
Mduduzi Shabalala Kaizer Chiefs Ativo 115 / 97 40% 4 30.12.2026 -
Petar Stanić Ludogorets Ativo 142 / 136 40% 4 30.12.2026 -
Scott Twine Bristol City Ativo 124 / 141 40% 1 30.12.2026 -
Siyanda Ndlovu Bloemfontein Celtic Ativo 127 / 103 40% 2 29.12.2026 -
Kasey McAteer Ipswich Town Ativo 119 / 111 40% 1 28.12.2026 -
Denis Višinský Viktoria Plzen Ativo 116 / 125 40% 2 26.12.2026 -
Kwadwo Baah Watford Ativo 137 / 137 40% 1 26.12.2026 -
David Pech Mlada Boleslav Ativo 122 / 129 40% 3 25.12.2026 Observar
Derensili Sanches Fernandes Huddersfield Town Ativo 128 / 124 40% 1 25.12.2026 -
Mandla Erasmus SuperSport United Ativo 115 / 129 40% 3 24.12.2026 -
Ruben van Bommel Ferencvaros Ativo 127 / 133 40% 2 23.12.2026 -
Othmane Maamma Watford Ativo 120 / 124 40% 1 23.12.2026 -
Aidan Morris Middlesbrough Ativo 139 / 112 40% 1 23.12.2026 -
Karel Spáčil Viktoria Plzen Ativo 123 / 127 40% 2 22.12.2026 -
Marko Soldo Sigma Olomouc Ativo 115 / 128 40% 1 21.12.2026 -
Petr Juliš Slovan Liberec Ativo 115 / 105 40% 1 21.12.2026 -
Sayfallah Ltaief Cracovia Ativo 128 / 110 40% 4 20.12.2026 -
Santiago Pierotti Lecce Ativo 120 / 133 40% 1 20.12.2026 -
Matyáš Kozák Teplice Ativo 104 / 99 40% 2 19.12.2026 -
Lukáš Vorlický Slovacko Ativo 109 / 109 40% 3 19.12.2026 -
Abubakar Ghali Sigma Olomouc Ativo 109 / 99 40% 2 18.12.2026 -
Suleiman Camara Slovan Bratislava Ativo 117 / 114 40% 2 16.12.2026 -
Joaquín Gho Argentinos Juniors Ativo 116 / 140 40% 2 15.12.2026 -
Merchas Doski Viktoria Plzen Ativo 119 / 124 40% 4 15.12.2026 -
Juergen Elitím Bohemians 1905 Ativo 108 / 103 40% 2 14.12.2026 -
Péter Baráth Sigma Olomouc Ativo 110 / 105 40% 1 12.12.2026 -
Reda Khadra Qarabag Ativo 122 / 131 40% 4 11.12.2026 -
Jakub Kadák Dukla Prague Ativo 113 / 128 40% 1 10.12.2026 -
Tomás González Piast Ativo 115 / 110 40% 2 06.12.2026 -
Ruslan Bezrukov Rubin Ativo 106 / 112 40% 1 06.12.2026 -
Lukáš Červ Viktoria Plzen Ativo 132 / 131 40% 4 05.12.2026 -
Oswin Appollis Orlando Pirates Ativo 119 / 110 40% 4 02.12.2026 -
Ramiro Ruiz Rodríguez Atlético Tucumán Ativo 120 / 110 40% 1 02.12.2026 -
Williams Manyama SuperSport United Ativo 112 / 122 40% 2 26.11.2026 -
Alan Lescano Argentinos Juniors Ativo 141 / 129 40% 2 26.11.2026 -
Marcelo Allende Mamelodi Sundowns Ativo 140 / 119 40% 1 26.11.2026 -
Tornike Morchiladze HNK Rijeka Ativo 116 / 125 40% 2 25.11.2026 -
Michal Kohút Banik Ostrava Ativo 120 / 122 40% 2 25.11.2026 -
Jiří Boula Banik Ostrava Ativo 132 / 125 40% 1 25.11.2026 -
Josip Mitrović Slaven Belupo Ativo 120 / 111 40% 1 23.11.2026 -
Daniel Kyerewaa Reading Ativo 111 / 128 40% 3 17.11.2026 -
Marcel Čermák Teplice Ativo 118 / 96 40% 1 15.11.2026 -
Angelo Gattermayer Wolfsberger AC Ativo 126 / 132 40% 1 14.11.2026 -
David Miculescu FCSB Ativo 126 / 106 40% 1 13.11.2026 -
Ammar Ramadan DAC Dunajska Streda Ativo 121 / 118 40% 1 10.11.2026 -
Santiago Rodríguez Columbus Crew Ativo 136 / 115 40% 1 10.11.2026 -
Bénie Traoré New York City Ativo 128 / 136 40% 3 07.11.2026 -
Conrad Wallem Austria Wien Ativo 120 / 129 40% 2 06.11.2026 -
Tadeo Allende Inter Miami CF Ativo 128 / 123 40% 1 06.11.2026 -
Tomás Chancalay Minnesota United FC Ativo 134 / 107 40% 2 02.11.2026 -
Enzo Avaro Odd Ativo 102 / 94 40% 1 30.10.2026 -
Ki-Jana Hoever Sparta Prague Ativo 117 / 133 40% 1 29.10.2026 -
Magnus Kofod Andersen Sparta Prague Ativo 134 / 121 40% 1 29.10.2026 -
Andy Irving Sparta Prague Ativo 120 / 132 40% 1 27.10.2026 -
Antony Portland Timbers Ativo 118 / 131 40% 1 25.10.2026 -
Kelvin Yeboah Minnesota United FC Ativo 115 / 128 40% 1 19.10.2026 -
Michal Sadílek Slavia Prague Ativo 130 / 119 40% 1 18.10.2026 -
David Da Costa Portland Timbers Ativo 131 / 132 40% 1 16.10.2026 -
Iván Angulo Orlando City Ativo 127 / 137 40% 2 14.10.2026 -
Antonio Galeano Remo Stars Ativo 131 / 127 40% 1 14.10.2026 -
Gabriel Pirani San Diego Football Club Ativo 124 / 126 40% 1 12.10.2026 -
Andrés Herrera Columbus Crew Ativo 117 / 122 40% 1 11.10.2026 -
Indiana Vassilev Philadelphia Union Ativo 115 / 116 40% 1 10.10.2026 -
Joaquín Pereyra Minnesota United FC Ativo 129 / 107 40% 1 09.10.2026 -
Martín Ojeda Orlando City Ativo 147 / 138 40% 1 08.10.2026 -
Bongani Modiba Black Aces Ativo 106 / 136 40% 1 07.10.2026 -
Mayckel Lahdo Malmo FF Ativo 133 / 109 40% 1 07.10.2026 -
Josh Sargent Toronto FC Ativo 133 / 122 40% 1 24.08.2026 -
Thomas Müller Vancouver Whitecaps Ativo 136 / 151 40% 1 24.08.2026 -
Ibrahim Aliyu Houston Dynamo Ativo 124 / 134 40% 1 17.08.2026 -
Gabriel Jesus Barcelona Ativo 156 / 164 40% 1 03.08.2026 -
João Klauss LA Galaxy Ativo 123 / 113 40% 1 01.08.2026 -